Time;durP1;ratioP1;P1;durP2;ratioP2;P2;SDS_P1;SDS_P2;PMS_P1;PMS_P2;Temp;Humidity;BMP_temperature;BMP_pressure;BME280_temperature;BME280_humidity;BME280_pressure;Samples;Min_cycle;Max_cycle;Signal;HPM_P1;HPM_P2
2022/03/08 00:00:26;;;;;;;33.72;10.95;;;9.30;41.70;;;;;;6273958;28;20443;-70
2022/03/08 00:03:28;;;;;;;35.55;12.68;;;9.30;41.70;;;;;;6277328;28;20422;-68
2022/03/08 00:06:28;;;;;;;38.25;12.50;;;9.30;42.30;;;;;;6276285;28;20053;-68
2022/03/08 00:09:29;;;;;;;37.33;13.95;;;9.30;41.90;;;;;;6276036;28;20357;-68
2022/03/08 00:12:30;;;;;;;40.67;15.43;;;9.30;41.90;;;;;;6277115;28;20088;-68
2022/03/08 00:15:31;;;;;;;31.88;12.13;;;9.20;42.00;;;;;;6277016;28;20036;-69
2022/03/08 00:18:32;;;;;;;35.15;13.63;;;9.20;42.20;;;;;;6276907;28;20040;-68
2022/03/08 00:21:33;;;;;;;31.15;13.52;;;9.20;42.40;;;;;;6275862;28;20037;-68
2022/03/08 00:24:34;;;;;;;45.00;13.95;;;9.10;42.60;;;;;;6276445;28;20450;-68
2022/03/08 00:27:35;;;;;;;30.70;12.95;;;9.10;42.80;;;;;;6275713;28;20365;-68
2022/03/08 00:30:38;;;;;;;31.65;13.23;;;9.00;42.80;;;;;;6275662;28;20059;-68
2022/03/08 00:33:41;;;;;;;37.85;13.38;;;9.00;43.00;;;;;;6275336;28;20037;-68
2022/03/08 00:36:42;;;;;;;37.45;14.32;;;9.00;43.10;;;;;;6275214;28;20037;-68
2022/03/08 00:39:43;;;;;;;31.17;14.32;;;8.90;43.20;;;;;;6275690;28;20041;-69
2022/03/08 00:42:44;;;;;;;33.22;12.52;;;8.90;43.80;;;;;;6275249;28;20037;-69
2022/03/08 00:45:45;;;;;;;29.05;11.90;;;8.90;43.20;;;;;;6257412;28;20064;-69
2022/03/08 00:48:46;;;;;;;30.50;12.20;;;8.90;43.20;;;;;;6275323;28;20094;-68
2022/03/08 00:51:47;;;;;;;28.20;12.45;;;8.80;43.00;;;;;;6258409;28;20373;-68
2022/03/08 00:54:48;;;;;;;31.63;12.70;;;8.80;43.10;;;;;;6272643;28;20049;-69
2022/03/08 00:57:50;;;;;;;32.88;13.07;;;8.80;43.10;;;;;;6275394;28;20462;-69
2022/03/08 01:00:51;;;;;;;24.65;11.45;;;8.70;43.10;;;;;;6274983;28;20086;-69
2022/03/08 01:03:52;;;;;;;38.17;12.68;;;8.70;43.20;;;;;;6259149;28;20047;-68
2022/03/08 01:06:55;;;;;;;45.30;13.43;;;8.70;43.30;;;;;;6275267;28;20049;-68
2022/03/08 01:09:56;;;;;;;38.22;11.88;;;8.70;43.20;;;;;;6274861;28;20033;-68
2022/03/08 01:12:58;;;;;;;26.88;11.73;;;8.70;43.10;;;;;;6274717;28;20055;-67
2022/03/08 01:15:59;;;;;;;35.28;12.90;;;8.70;43.20;;;;;;6274198;28;20044;-67
2022/03/08 01:19:01;;;;;;;33.22;12.88;;;8.70;43.30;;;;;;6275649;28;20138;-68
2022/03/08 01:22:03;;;;;;;35.83;14.20;;;8.70;43.50;;;;;;6273003;28;20028;-70
2022/03/08 01:25:05;;;;;;;32.83;12.02;;;8.70;43.50;;;;;;6274198;28;20369;-69
2022/03/08 01:28:07;;;;;;;34.58;13.45;;;8.70;43.70;;;;;;6275394;28;20025;-68
2022/03/08 01:31:08;;;;;;;32.95;13.63;;;8.70;43.70;;;;;;6273038;28;20123;-68
2022/03/08 01:34:09;;;;;;;35.85;14.02;;;8.60;43.60;;;;;;6257608;28;20042;-67
2022/03/08 01:37:11;;;;;;;32.70;13.18;;;8.60;43.90;;;;;;6249706;28;20114;-68
2022/03/08 01:40:14;;;;;;;33.70;14.02;;;8.50;44.30;;;;;;6232052;28;20454;-67
2022/03/08 01:43:15;;;;;;;33.25;12.48;;;8.40;44.60;;;;;;6249518;28;20340;-67
2022/03/08 01:46:17;;;;;;;31.08;12.13;;;8.40;44.80;;;;;;6249136;28;20037;-67
2022/03/08 01:49:17;;;;;;;35.92;14.77;;;8.30;44.90;;;;;;6249028;28;20095;-69
2022/03/08 01:52:22;;;;;;;28.48;12.43;;;8.20;45.00;;;;;;6234604;28;20359;-67
2022/03/08 01:55:25;;;;;;;30.88;11.90;;;8.20;45.00;;;;;;6247042;28;20448;-67
2022/03/08 01:58:26;;;;;;;34.58;12.57;;;8.20;44.90;;;;;;6249842;28;20031;-67
2022/03/08 02:01:27;;;;;;;35.50;12.48;;;8.20;44.90;;;;;;6249950;28;20037;-69
2022/03/08 02:04:28;;;;;;;39.75;14.25;;;8.20;44.80;;;;;;6227697;28;20037;-67
2022/03/08 02:07:29;;;;;;;29.45;11.70;;;8.30;44.80;;;;;;6243359;28;20041;-68
2022/03/08 02:10:30;;;;;;;38.25;13.35;;;8.30;44.90;;;;;;6250154;28;20041;-67
2022/03/08 02:13:31;;;;;;;33.83;12.73;;;8.20;44.80;;;;;;6265019;28;20052;-67
2022/03/08 02:16:32;;;;;;;34.45;11.98;;;8.20;44.80;;;;;;6274682;28;20040;-69
2022/03/08 02:19:33;;;;;;;29.60;11.10;;;8.20;44.80;;;;;;6274365;28;20040;-67
2022/03/08 02:22:35;;;;;;;30.95;13.35;;;8.20;44.90;;;;;;6260659;28;20072;-67
2022/03/08 02:25:35;;;;;;;31.88;12.73;;;8.20;44.80;;;;;;6256551;28;20057;-68
2022/03/08 02:28:38;;;;;;;31.42;12.00;;;8.20;44.90;;;;;;6246485;28;20032;-68
2022/03/08 02:31:39;;;;;;;31.42;12.27;;;8.10;45.10;;;;;;6272799;28;20041;-68
2022/03/08 02:34:40;;;;;;;34.60;12.65;;;8.10;45.20;;;;;;6273587;28;20095;-68
2022/03/08 02:37:43;;;;;;;29.83;12.35;;;8.00;46.10;;;;;;6272889;28;20063;-68
2022/03/08 02:40:43;;;;;;;29.77;11.57;;;7.90;45.50;;;;;;6274005;28;20461;-68
2022/03/08 02:43:44;;;;;;;28.45;12.70;;;7.90;45.50;;;;;;6273277;28;20037;-67
2022/03/08 02:46:45;;;;;;;30.23;11.23;;;7.90;45.60;;;;;;6274821;28;20043;-68
2022/03/08 02:49:46;;;;;;;34.67;11.90;;;7.90;45.80;;;;;;6274687;28;20040;-68
2022/03/08 02:52:51;;;;;;;22.80;11.00;;;7.90;45.90;;;;;;6273277;28;20135;-68
2022/03/08 02:55:52;;;;;;;32.58;12.07;;;7.80;45.90;;;;;;6270782;28;20064;-68
2022/03/08 02:58:53;;;;;;;32.95;11.45;;;7.70;46.00;;;;;;6273095;28;20369;-68
2022/03/08 03:01:54;;;;;;;31.00;11.52;;;7.70;46.20;;;;;;6275048;28;20029;-68
2022/03/08 03:04:55;;;;;;;31.02;13.48;;;7.70;46.30;;;;;;6248619;28;20065;-68
2022/03/08 03:07:57;;;;;;;24.85;11.50;;;7.60;46.40;;;;;;6264880;28;20045;-68
2022/03/08 03:10:58;;;;;;;27.25;12.10;;;7.60;46.30;;;;;;6248443;28;20030;-69
2022/03/08 03:13:59;;;;;;;31.52;11.73;;;7.60;46.30;;;;;;6248518;28;20060;-68
2022/03/08 03:17:00;;;;;;;28.55;11.02;;;7.60;46.20;;;;;;6248451;28;20037;-68
2022/03/08 03:20:01;;;;;;;26.65;10.70;;;7.60;46.20;;;;;;6248463;28;20045;-68
2022/03/08 03:23:02;;;;;;;29.17;11.25;;;7.70;46.40;;;;;;6264315;28;20067;-68
2022/03/08 03:26:03;;;;;;;31.63;12.13;;;7.60;46.30;;;;;;6272583;28;20052;-68
2022/03/08 03:29:04;;;;;;;27.90;11.77;;;7.60;46.30;;;;;;6274118;28;20116;-68
2022/03/08 03:32:06;;;;;;;25.33;10.77;;;7.60;46.30;;;;;;6273332;28;20480;-68
2022/03/08 03:35:08;;;;;;;25.02;10.10;;;7.50;46.50;;;;;;6272206;28;20041;-68
2022/03/08 03:38:08;;;;;;;29.20;11.50;;;7.50;46.50;;;;;;6272494;28;20119;-69
2022/03/08 03:41:10;;;;;;;24.17;11.63;;;7.50;46.70;;;;;;6272711;28;20459;-68
2022/03/08 03:44:11;;;;;;;25.23;10.10;;;7.40;46.90;;;;;;6272760;28;20041;-68
2022/03/08 03:47:12;;;;;;;41.13;13.30;;;7.40;47.20;;;;;;6273568;28;20075;-68
2022/03/08 03:50:14;;;;;;;32.38;12.50;;;7.30;47.50;;;;;;6264006;28;20489;-68
2022/03/08 03:53:14;;;;;;;28.83;11.52;;;7.20;47.60;;;;;;6272482;28;20037;-68
2022/03/08 03:56:15;;;;;;;31.55;11.48;;;7.20;48.00;;;;;;6272762;28;20060;-68
2022/03/08 03:59:16;;;;;;;27.08;11.57;;;7.10;47.70;;;;;;6271957;28;20497;-68
2022/03/08 04:02:17;;;;;;;32.88;12.90;;;7.20;47.70;;;;;;6272802;28;20033;-68
2022/03/08 04:05:19;;;;;;;34.78;12.73;;;7.20;47.70;;;;;;6255630;28;20085;-68
2022/03/08 04:08:22;;;;;;;25.75;10.02;;;7.20;47.80;;;;;;6273139;28;20048;-67
2022/03/08 04:11:23;;;;;;;23.30;10.45;;;7.20;47.60;;;;;;6273400;28;20135;-67
2022/03/08 04:14:25;;;;;;;33.92;11.77;;;7.30;47.60;;;;;;6272463;28;20048;-68
2022/03/08 04:17:26;;;;;;;25.40;9.20;;;7.20;47.50;;;;;;6272541;28;20081;-69
2022/03/08 04:20:27;;;;;;;35.35;11.80;;;7.20;47.50;;;;;;6271740;28;20045;-69
2022/03/08 04:23:28;;;;;;;33.20;12.52;;;7.30;47.60;;;;;;6251655;28;20041;-67
2022/03/08 04:26:29;;;;;;;25.00;10.52;;;7.40;47.70;;;;;;6247630;28;20037;-67
2022/03/08 04:29:30;;;;;;;32.15;11.88;;;7.20;47.60;;;;;;6247560;28;20105;-68
2022/03/08 04:32:31;;;;;;;29.17;11.13;;;7.20;47.70;;;;;;6256093;28;20036;-68
2022/03/08 04:35:32;;;;;;;25.17;11.05;;;7.20;47.70;;;;;;6255632;28;20041;-67
2022/03/08 04:38:34;;;;;;;25.65;10.82;;;7.20;47.70;;;;;;6255092;28;20061;-68
2022/03/08 04:41:34;;;;;;;24.73;10.80;;;7.10;47.70;;;;;;6271874;28;20060;-68
2022/03/08 04:44:35;;;;;;;25.15;10.73;;;7.10;48.00;;;;;;6272748;28;20045;-68
2022/03/08 04:47:38;;;;;;;28.77;11.18;;;7.10;47.80;;;;;;6275748;28;20067;-68
2022/03/08 04:50:40;;;;;;;33.95;11.00;;;7.10;47.90;;;;;;6276551;28;20443;-68
2022/03/08 04:53:42;;;;;;;24.23;10.63;;;7.10;48.00;;;;;;6272339;28;20038;-68
2022/03/08 04:56:43;;;;;;;28.27;10.55;;;7.00;48.10;;;;;;6276243;28;20033;-68
2022/03/08 04:59:44;;;;;;;26.77;11.73;;;7.00;48.40;;;;;;6276474;28;20056;-68
2022/03/08 05:02:46;;;;;;;25.83;9.95;;;6.90;48.50;;;;;;6277847;28;20032;-68
2022/03/08 05:05:47;;;;;;;27.65;11.25;;;6.90;48.60;;;;;;6275665;28;20382;-68
2022/03/08 05:08:47;;;;;;;33.70;11.65;;;6.80;48.60;;;;;;6275777;28;20041;-68
2022/03/08 05:11:48;;;;;;;27.75;10.32;;;6.80;48.80;;;;;;6276939;28;20466;-68
2022/03/08 05:14:49;;;;;;;27.95;10.85;;;6.70;49.00;;;;;;6275594;28;20044;-68
2022/03/08 05:17:50;;;;;;;28.90;11.52;;;6.70;49.10;;;;;;6275690;28;20114;-68
2022/03/08 05:20:51;;;;;;;27.30;11.57;;;6.60;49.10;;;;;;6275452;28;20094;-68
2022/03/08 05:23:52;;;;;;;23.23;10.52;;;6.60;49.30;;;;;;6275236;28;20416;-68
2022/03/08 05:26:54;;;;;;;26.25;10.05;;;6.50;49.50;;;;;;6276890;28;20044;-68
2022/03/08 05:29:55;;;;;;;36.97;13.40;;;6.50;49.60;;;;;;6275580;28;20076;-68
2022/03/08 05:32:55;;;;;;;31.83;14.00;;;6.50;49.50;;;;;;6267580;28;20044;-68
2022/03/08 05:35:56;;;;;;;32.58;14.82;;;6.50;49.60;;;;;;6251625;28;20036;-68
2022/03/08 05:38:57;;;;;;;38.35;14.02;;;6.50;49.60;;;;;;6249476;28;20116;-67
2022/03/08 05:41:58;;;;;;;36.25;13.38;;;6.50;49.60;;;;;;6234180;28;20041;-67
2022/03/08 05:44:59;;;;;;;40.25;14.05;;;6.50;49.50;;;;;;6251162;28;20025;-67
2022/03/08 05:48:00;;;;;;;32.63;12.45;;;6.50;49.50;;;;;;6250231;28;20061;-68
2022/03/08 05:51:01;;;;;;;26.52;11.10;;;6.50;49.50;;;;;;6257061;28;20037;-68
2022/03/08 05:54:02;;;;;;;27.35;11.77;;;6.60;49.60;;;;;;6252345;28;20041;-68
2022/03/08 05:57:03;;;;;;;28.13;12.32;;;6.60;49.60;;;;;;6249181;28;20033;-68
2022/03/08 06:00:06;;;;;;;30.55;12.68;;;6.60;49.60;;;;;;6251177;28;20091;-68
2022/03/08 06:03:12;;;;;;;37.70;12.43;;;6.70;49.60;;;;;;6263577;28;20037;-69
2022/03/08 06:06:13;;;;;;;27.23;10.70;;;6.70;49.50;;;;;;6274456;28;20049;-69
2022/03/08 06:09:15;;;;;;;27.98;11.13;;;6.70;49.50;;;;;;6273711;28;20040;-69
2022/03/08 06:12:16;;;;;;;32.90;12.77;;;6.70;49.50;;;;;;6275350;28;20484;-68
2022/03/08 06:15:17;;;;;;;26.27;12.77;;;6.70;49.50;;;;;;6273961;28;20041;-69
2022/03/08 06:18:17;;;;;;;34.00;11.73;;;6.70;49.60;;;;;;6273776;28;20060;-69
2022/03/08 06:21:18;;;;;;;31.10;11.77;;;6.70;49.60;;;;;;6272985;28;20037;-69
2022/03/08 06:24:19;;;;;;;33.17;12.10;;;6.70;49.60;;;;;;6274716;28;20320;-68
2022/03/08 06:27:20;;;;;;;36.22;12.50;;;6.70;49.70;;;;;;6274796;28;20048;-67
2022/03/08 06:30:27;;;;;;;35.53;13.35;;;6.60;49.70;;;;;;6273658;28;20049;-70
2022/03/08 06:33:28;;;;;;;28.40;11.80;;;6.60;49.90;;;;;;6248729;28;20095;-69
2022/03/08 06:36:30;;;;;;;30.85;11.38;;;6.60;50.00;;;;;;6249761;28;20037;-69
2022/03/08 06:39:30;;;;;;;40.58;12.27;;;6.60;49.90;;;;;;6248320;28;20069;-69
2022/03/08 06:42:31;;;;;;;26.50;12.00;;;6.60;50.00;;;;;;6248608;28;20042;-69
2022/03/08 06:45:32;;;;;;;31.65;11.55;;;6.60;50.00;;;;;;6248430;28;20121;-70
2022/03/08 06:48:33;;;;;;;36.65;11.82;;;6.60;50.10;;;;;;6248573;28;20081;-69
2022/03/08 06:51:35;;;;;;;28.83;11.48;;;6.60;50.10;;;;;;6262065;28;20025;-70
2022/03/08 06:54:36;;;;;;;36.90;13.25;;;6.60;50.10;;;;;;6273921;28;20045;-68
2022/03/08 06:57:37;;;;;;;44.28;14.18;;;6.70;50.10;;;;;;6273033;28;20048;-69
2022/03/08 07:00:38;;;;;;;31.85;12.95;;;6.70;50.10;;;;;;6273516;28;20367;-69
2022/03/08 07:03:39;;;;;;;26.15;12.00;;;6.70;50.00;;;;;;6258816;28;20356;-69
2022/03/08 07:06:40;;;;;;;26.95;11.93;;;6.80;50.10;;;;;;6247746;28;20064;-68
2022/03/08 07:09:41;;;;;;;25.02;11.38;;;6.80;50.00;;;;;;6247478;28;20038;-69
2022/03/08 07:12:42;;;;;;;30.15;13.18;;;6.90;49.90;;;;;;6247954;28;20382;-69
2022/03/08 07:15:43;;;;;;;24.90;12.30;;;7.00;49.80;;;;;;6247495;28;20133;-68
2022/03/08 07:18:45;;;;;;;24.17;10.82;;;7.00;49.50;;;;;;6249099;28;20120;-68
2022/03/08 07:21:46;;;;;;;33.90;12.27;;;7.00;49.30;;;;;;6250196;28;20052;-69
2022/03/08 07:24:47;;;;;;;28.08;12.25;;;7.10;49.20;;;;;;6273996;28;20474;-68
2022/03/08 07:27:48;;;;;;;33.38;12.98;;;7.00;49.20;;;;;;6272469;28;20033;-67
2022/03/08 07:30:49;;;;;;;33.05;13.75;;;7.10;49.20;;;;;;6272458;28;20337;-68
2022/03/08 07:33:51;;;;;;;30.08;12.95;;;7.10;49.10;;;;;;6273212;28;20442;-68
2022/03/08 07:36:52;;;;;;;30.23;12.45;;;7.20;49.10;;;;;;6272385;28;20369;-68
2022/03/08 07:39:53;;;;;;;26.30;12.45;;;7.20;49.10;;;;;;6273032;28;20029;-68
2022/03/08 07:42:54;;;;;;;30.77;13.55;;;7.30;49.10;;;;;;6272006;28;20040;-68
2022/03/08 07:45:54;;;;;;;29.58;12.38;;;7.30;48.90;;;;;;6272984;28;20044;-68
2022/03/08 07:48:55;;;;;;;40.20;13.38;;;7.40;48.70;;;;;;6271291;28;20044;-68
2022/03/08 07:51:57;;;;;;;31.20;12.88;;;7.50;48.50;;;;;;6268381;28;20478;-68
2022/03/08 07:54:58;;;;;;;42.72;13.13;;;7.60;48.30;;;;;;6248332;28;20503;-68
2022/03/08 07:58:00;;;;;;;45.63;16.00;;;7.60;48.20;;;;;;6248256;28;20033;-68
2022/03/08 08:01:01;;;;;;;30.38;12.00;;;7.60;48.10;;;;;;6267770;28;20041;-68
2022/03/08 08:04:02;;;;;;;44.08;13.27;;;7.70;48.10;;;;;;6273174;28;20112;-68
2022/03/08 08:07:04;;;;;;;37.97;13.57;;;7.80;47.90;;;;;;6270372;28;20056;-68
2022/03/08 08:10:06;;;;;;;31.05;13.50;;;7.90;47.80;;;;;;6272079;28;20033;-68
2022/03/08 08:13:07;;;;;;;35.58;13.90;;;8.00;47.60;;;;;;6271753;28;20116;-68
2022/03/08 08:16:08;;;;;;;34.75;14.52;;;8.10;47.50;;;;;;6271801;28;20033;-68
2022/03/08 08:19:09;;;;;;;32.63;11.90;;;8.20;47.20;;;;;;6278598;28;20041;-68
2022/03/08 08:22:10;;;;;;;34.28;14.35;;;8.30;46.80;;;;;;6274021;28;20112;-69
2022/03/08 08:25:11;;;;;;;39.40;13.65;;;8.30;46.40;;;;;;6276900;28;20335;-70
2022/03/08 08:28:12;;;;;;;38.35;15.23;;;8.30;46.20;;;;;;6277431;28;20049;-69
2022/03/08 08:31:13;;;;;;;43.78;15.65;;;8.40;46.10;;;;;;6260305;28;20036;-70
2022/03/08 08:34:14;;;;;;;35.22;14.38;;;8.50;46.10;;;;;;6277712;28;20048;-68
2022/03/08 08:37:15;;;;;;;38.25;14.85;;;8.60;46.00;;;;;;6275895;28;20044;-68
2022/03/08 08:40:16;;;;;;;38.10;16.35;;;8.70;45.80;;;;;;6275896;28;20366;-69
2022/03/08 08:43:17;;;;;;;35.78;15.30;;;8.80;45.40;;;;;;6276896;28;20045;-69
2022/03/08 08:46:18;;;;;;;36.47;14.95;;;8.90;45.20;;;;;;6259266;28;20072;-70
2022/03/08 08:49:19;;;;;;;39.60;16.70;;;9.00;45.20;;;;;;6272531;28;20029;-68
2022/03/08 08:52:20;;;;;;;41.70;17.33;;;9.10;44.90;;;;;;6276300;28;20043;-69
2022/03/08 08:55:22;;;;;;;37.28;16.83;;;9.20;44.80;;;;;;6266729;28;20096;-69
2022/03/08 08:58:22;;;;;;;37.35;15.20;;;9.20;44.60;;;;;;6251116;28;20045;-71
2022/03/08 09:01:23;;;;;;;40.20;16.40;;;9.40;44.50;;;;;;6250603;28;20064;-69
2022/03/08 09:04:24;;;;;;;35.85;13.75;;;9.50;44.20;;;;;;6273398;28;20043;-68
2022/03/08 09:07:25;;;;;;;45.28;15.27;;;9.60;43.80;;;;;;6276612;28;20048;-68
2022/03/08 09:10:26;;;;;;;39.55;16.42;;;9.70;43.60;;;;;;6275644;28;20033;-69
2022/03/08 09:13:27;;;;;;;35.53;12.63;;;9.80;43.50;;;;;;6275444;28;20048;-68
2022/03/08 09:16:27;;;;;;;38.15;14.32;;;9.90;43.10;;;;;;6275045;28;20025;-68
2022/03/08 09:19:28;;;;;;;38.50;16.13;;;10.00;42.80;;;;;;6275711;28;20445;-68
2022/03/08 09:22:29;;;;;;;39.88;16.02;;;9.90;42.70;;;;;;6274471;28;20467;-69
2022/03/08 09:25:31;;;;;;;47.28;15.27;;;10.00;42.80;;;;;;6274639;28;20033;-68
2022/03/08 09:28:33;;;;;;;37.75;15.52;;;10.10;42.80;;;;;;6275012;28;20142;-68
2022/03/08 09:31:33;;;;;;;38.35;15.82;;;10.20;42.80;;;;;;6273905;28;20028;-68
2022/03/08 09:34:34;;;;;;;38.10;14.90;;;10.30;42.60;;;;;;6273924;28;20206;-68
2022/03/08 09:37:35;;;;;;;41.65;16.88;;;10.40;42.20;;;;;;6274313;28;20178;-68
2022/03/08 09:40:36;;;;;;;33.50;14.55;;;10.50;41.80;;;;;;6275733;28;20425;-68
2022/03/08 09:43:38;;;;;;;38.28;15.45;;;10.50;41.60;;;;;;6275593;28;20033;-68
2022/03/08 09:46:40;;;;;;;38.22;15.85;;;10.60;41.60;;;;;;6257865;28;20102;-68
2022/03/08 09:49:41;;;;;;;44.90;21.05;;;10.70;41.60;;;;;;6273998;28;20082;-68
2022/03/08 09:52:42;;;;;;;52.85;20.85;;;10.80;41.50;;;;;;6266365;28;20474;-68
2022/03/08 09:55:43;;;;;;;43.45;17.30;;;11.00;41.30;;;;;;6249381;28;20438;-68
2022/03/08 09:58:44;;;;;;;38.88;14.90;;;11.00;40.50;;;;;;6250359;28;20053;-68
2022/03/08 10:01:47;;;;;;;39.50;14.40;;;11.00;40.40;;;;;;6249725;28;20087;-68
2022/03/08 10:05:02;;;;;;;42.28;16.50;;;11.00;40.10;;;;;;6273297;28;20343;-69
2022/03/08 10:08:21;;;;;;;43.03;15.90;;;10.90;40.10;;;;;;6273323;28;20040;-67
2022/03/08 10:11:23;;;;;;;;;;;10.90;40.30;;;;;;6272423;28;20489;-68
2022/03/08 10:14:39;;;;;;;40.40;14.60;;;11.00;40.30;;;;;;6273820;28;19996;-67
2022/03/08 10:17:40;;;;;;;54.17;13.52;;;11.10;40.00;;;;;;6272137;28;20040;-69
2022/03/08 10:20:41;;;;;;;37.15;14.52;;;11.10;39.40;;;;;;6273358;28;20029;-70
2022/03/08 10:23:42;;;;;;;36.47;14.43;;;11.10;39.50;;;;;;6270680;28;20072;-69
2022/03/08 10:26:49;;;;;;;51.80;18.00;;;11.20;39.70;;;;;;6270579;28;20504;-69
2022/03/08 10:29:58;;;;;;;40.67;15.05;;;11.30;39.50;;;;;;6278300;28;20044;-69
2022/03/08 10:32:59;;;;;;;34.50;14.13;;;11.50;39.40;;;;;;6274078;28;20037;-68
2022/03/08 10:36:00;;;;;;;27.83;13.23;;;11.60;38.90;;;;;;6273421;28;20067;-69
2022/03/08 10:39:10;;;;;;;38.20;14.32;;;11.90;38.30;;;;;;6273118;28;20037;-69
2022/03/08 10:42:11;;;;;;;37.55;14.10;;;12.20;38.00;;;;;;6272148;28;20036;-69
2022/03/08 10:45:15;;;;;;;36.97;13.77;;;12.60;37.60;;;;;;6276060;28;20032;-68
2022/03/08 10:48:18;;;;;;;34.33;13.55;;;13.00;37.10;;;;;;6268488;28;20037;-68
2022/03/08 10:51:19;;;;;;;40.05;16.88;;;13.40;36.30;;;;;;6274206;28;20033;-69
2022/03/08 10:54:20;;;;;;;37.08;14.90;;;13.80;35.90;;;;;;6272724;28;20065;-68
2022/03/08 10:57:21;;;;;;;36.47;14.73;;;14.10;35.60;;;;;;6255751;28;20064;-68
2022/03/08 11:00:40;;;;;;;42.53;15.27;;;14.40;35.20;;;;;;6245766;28;20128;-68
2022/03/08 11:03:55;;;;;;;37.17;15.30;;;14.60;34.80;;;;;;6250532;28;20037;-69
2022/03/08 11:06:57;;;;;;;41.80;17.23;;;14.90;34.30;;;;;;6258742;28;20070;-69
2022/03/08 11:09:58;;;;;;;42.95;16.77;;;15.10;33.70;;;;;;6247002;28;20091;-68
2022/03/08 11:13:00;;;;;;;43.03;17.30;;;15.30;33.10;;;;;;6245443;28;20430;-69
2022/03/08 11:16:02;;;;;;;40.40;16.98;;;15.50;33.20;;;;;;6246445;28;20044;-67
2022/03/08 11:19:05;;;;;;;43.75;17.85;;;15.60;32.90;;;;;;6246617;28;20025;-69
2022/03/08 11:22:06;;;;;;;41.95;18.02;;;15.70;32.50;;;;;;6248693;28;20112;-69
2022/03/08 11:25:09;;;;;;;41.58;17.20;;;15.80;32.50;;;;;;6270750;28;20116;-70
2022/03/08 11:28:10;;;;;;;40.85;17.27;;;16.00;32.10;;;;;;6270341;28;20064;-68
2022/03/08 11:31:15;;;;;;;46.45;17.83;;;16.20;31.80;;;;;;6270666;28;20339;-69
2022/03/08 11:34:40;;;;;;;41.33;17.10;;;16.40;31.80;;;;;;6270977;28;20065;-69
2022/03/08 11:37:46;;;;;;;45.22;17.48;;;16.70;31.00;;;;;;6268723;28;20045;-69
2022/03/08 11:40:53;;;;;;;44.38;18.55;;;17.00;31.00;;;;;;6268776;28;20033;-69
2022/03/08 11:43:57;;;;;;;45.67;19.40;;;17.40;30.50;;;;;;6269436;28;20041;-68
2022/03/08 11:47:54;;;;;;;41.55;17.55;;;17.70;30.00;;;;;;6271064;28;20037;-69
2022/03/08 11:51:08;;;;;;;42.55;16.80;;;18.10;29.80;;;;;;6237786;28;20036;-69
2022/03/08 11:54:25;;;;;;;36.72;15.18;;;18.70;29.10;;;;;;6269008;28;20123;-69
2022/03/08 11:57:48;;;;;;;33.55;16.10;;;19.20;28.00;;;;;;6264036;28;20118;-69
2022/03/08 12:00:53;;;;;;;38.70;16.42;;;19.60;27.80;;;;;;6268417;28;20037;-69
2022/03/08 12:03:56;;;;;;;36.90;15.20;;;20.10;27.20;;;;;;6248478;28;20047;-70
2022/03/08 12:06:58;;;;;;;40.50;16.80;;;20.60;26.80;;;;;;6273421;28;20049;-70
2022/03/08 12:10:26;;;;;;;41.55;15.48;;;21.10;25.60;;;;;;6273350;28;20052;-70
2022/03/08 12:13:30;;;;;;;33.88;15.88;;;21.50;25.30;;;;;;6273099;28;20044;-69
2022/03/08 12:16:32;;;;;;;42.03;17.08;;;21.80;24.60;;;;;;6272294;28;20040;-69
2022/03/08 12:19:36;;;;;;;34.63;15.70;;;22.10;24.20;;;;;;6270603;28;20376;-70
2022/03/08 12:22:37;;;;;;;35.13;16.02;;;22.30;24.20;;;;;;6265118;28;20037;-72
2022/03/08 12:25:38;;;;;;;34.75;16.25;;;22.50;23.80;;;;;;6247200;28;20523;-71
2022/03/08 12:29:13;;;;;;;35.70;14.98;;;22.80;23.60;;;;;;6246685;28;20033;-71
2022/03/08 12:32:41;;;;;;;32.90;15.40;;;23.00;23.30;;;;;;6253089;28;20516;-69
2022/03/08 12:35:52;;;;;;;37.58;16.08;;;23.40;22.80;;;;;;6270462;28;20140;-69
2022/03/08 12:38:53;;;;;;;35.72;16.13;;;23.90;22.20;;;;;;6255835;28;20129;-70
2022/03/08 12:41:58;;;;;;;38.00;16.60;;;24.40;21.90;;;;;;6248216;28;20164;-70
2022/03/08 12:45:02;;;;;;;35.72;15.75;;;24.90;21.50;;;;;;6266313;28;20036;-69
2022/03/08 12:48:10;;;;;;;37.10;15.90;;;25.30;20.90;;;;;;6271154;28;20060;-70
2022/03/08 12:51:13;;;;;;;31.75;14.85;;;25.60;20.50;;;;;;6269753;28;20128;-70
2022/03/08 12:54:16;;;;;;;33.08;14.48;;;25.90;20.20;;;;;;6272586;28;20094;-71
2022/03/08 12:57:19;;;;;;;30.95;13.90;;;26.10;19.80;;;;;;6273473;28;20036;-70
2022/03/08 13:00:29;;;;;;;31.35;15.13;;;26.10;19.60;;;;;;6274104;28;20037;-70
2022/03/08 13:03:34;;;;;;;37.10;15.60;;;26.00;19.60;;;;;;6275238;28;20381;-70
2022/03/08 13:06:35;;;;;;;36.88;14.55;;;26.20;19.50;;;;;;6272181;28;20118;-70
2022/03/08 13:09:54;;;;;;;34.63;16.60;;;26.30;19.30;;;;;;6273749;28;20397;-70
2022/03/08 13:13:00;;;;;;;37.00;13.55;;;26.40;18.90;;;;;;6270647;28;20312;-70
2022/03/08 13:16:00;;;;;;;32.28;14.57;;;26.00;19.10;;;;;;6272975;28;20197;-70
2022/03/08 13:19:01;;;;;;;30.60;13.77;;;25.20;19.60;;;;;;6272917;28;20110;-70
2022/03/08 13:22:02;;;;;;;32.50;13.75;;;24.30;20.20;;;;;;6272887;28;20037;-70
2022/03/08 13:25:10;;;;;;;32.10;13.70;;;23.50;20.70;;;;;;6272058;28;20033;-69
2022/03/08 13:28:13;;;;;;;33.95;13.32;;;22.60;21.20;;;;;;6272563;28;20380;-69
2022/03/08 13:31:14;;;;;;;36.03;13.63;;;22.00;21.90;;;;;;6272104;28;20106;-69
2022/03/08 13:34:16;;;;;;;30.45;11.90;;;21.30;22.30;;;;;;6272840;28;20040;-69
2022/03/08 13:37:17;;;;;;;35.88;14.57;;;20.80;22.70;;;;;;6273669;28;20033;-69
2022/03/08 13:40:29;;;;;;;33.10;14.05;;;20.40;23.10;;;;;;6272208;28;20144;-69
2022/03/08 13:43:33;;;;;;;43.38;12.75;;;20.10;23.50;;;;;;6271800;28;20386;-69
2022/03/08 13:46:41;;;;;;;35.10;12.63;;;19.90;23.80;;;;;;6272990;28;20049;-68
2022/03/08 13:49:42;;;;;;;27.55;11.98;;;19.70;23.90;;;;;;6271343;28;20021;-69
2022/03/08 13:53:03;;;;;;;23.50;10.73;;;19.50;24.10;;;;;;6264076;28;20060;-69
2022/03/08 13:56:06;;;;;;;40.45;13.55;;;19.30;24.30;;;;;;6246732;28;20382;-69
2022/03/08 13:59:07;;;;;;;35.40;11.60;;;19.20;24.50;;;;;;6247961;28;20041;-69
2022/03/08 14:02:14;;;;;;;37.35;14.50;;;19.10;24.70;;;;;;6251253;28;20073;-70
2022/03/08 14:05:15;;;;;;;34.55;11.82;;;18.90;24.80;;;;;;6270529;28;20051;-69
2022/03/08 14:08:26;;;;;;;29.67;11.32;;;18.80;25.00;;;;;;6270368;28;20078;-69
2022/03/08 14:11:27;;;;;;;21.42;9.80;;;18.70;25.20;;;;;;6271434;28;20057;-69
2022/03/08 14:14:30;;;;;;;24.95;10.35;;;18.60;25.40;;;;;;6271221;28;20111;-69
2022/03/08 14:17:31;;;;;;;31.92;10.50;;;18.60;25.70;;;;;;6270820;28;20037;-70
2022/03/08 14:20:38;;;;;;;31.73;11.60;;;18.50;25.80;;;;;;6271591;28;20040;-69
2022/03/08 14:23:42;;;;;;;30.95;11.68;;;18.40;25.90;;;;;;6251820;28;20094;-68
2022/03/08 14:27:00;;;;;;;32.80;12.88;;;18.30;25.90;;;;;;6271068;28;20104;-69
2022/03/08 14:30:05;;;;;;;19.10;8.25;;;18.30;26.00;;;;;;6269941;28;20056;-70
2022/03/08 14:33:07;;;;;;;26.70;11.10;;;18.30;26.20;;;;;;6260467;28;20095;-69
2022/03/08 14:36:08;;;;;;;23.67;9.50;;;18.20;26.60;;;;;;6245796;28;20065;-69
2022/03/08 14:39:16;;;;;;;24.52;8.43;;;18.10;26.70;;;;;;6245083;28;20077;-70
2022/03/08 14:42:18;;;;;;;26.42;10.13;;;18.00;26.80;;;;;;6243132;28;20029;-70
2022/03/08 14:45:19;;;;;;;27.05;10.52;;;18.00;27.10;;;;;;6241959;28;20037;-70
2022/03/08 14:48:21;;;;;;;15.95;6.88;;;18.00;27.10;;;;;;6245673;28;20029;-69
2022/03/08 14:51:22;;;;;;;17.30;7.65;;;18.00;27.50;;;;;;6245690;28;20116;-70
2022/03/08 14:54:23;;;;;;;28.55;10.75;;;17.90;27.90;;;;;;6254791;28;20315;-69
2022/03/08 14:57:24;;;;;;;19.33;7.63;;;17.90;28.20;;;;;;6270369;28;20345;-69
2022/03/08 15:00:26;;;;;;;19.50;8.35;;;17.90;28.20;;;;;;6258780;28;20446;-70
2022/03/08 15:03:27;;;;;;;21.40;8.23;;;17.90;28.30;;;;;;6259649;28;20059;-69
2022/03/08 15:06:29;;;;;;;23.25;8.90;;;17.90;28.30;;;;;;6269622;28;20037;-69
2022/03/08 15:09:30;;;;;;;18.33;7.10;;;17.80;28.50;;;;;;6243664;28;20116;-69
2022/03/08 15:12:31;;;;;;;14.35;6.15;;;17.80;29.00;;;;;;6262837;28;20331;-70
2022/03/08 15:15:32;;;;;;;13.95;6.43;;;17.80;29.80;;;;;;6270106;28;20044;-69
2022/03/08 15:18:33;;;;;;;18.42;5.90;;;17.70;30.90;;;;;;6268708;28;20473;-69
2022/03/08 15:21:34;;;;;;;19.35;8.10;;;17.60;31.20;;;;;;6268852;28;20072;-69
2022/03/08 15:24:35;;;;;;;12.82;5.95;;;17.60;31.10;;;;;;6268508;28;20033;-70
2022/03/08 15:27:36;;;;;;;18.70;7.38;;;17.70;31.10;;;;;;6244479;28;20465;-68
2022/03/08 15:30:37;;;;;;;20.92;6.53;;;17.60;32.20;;;;;;6243782;28;20052;-69
2022/03/08 15:33:38;;;;;;;12.57;5.53;;;17.50;32.50;;;;;;6238840;28;20047;-69